Time;durP1;ratioP1;P1;durP2;ratioP2;P2;SDS_P1;SDS_P2;PMS_P1;PMS_P2;Temp;Humidity;BMP_temperature;BMP_pressure;BME280_temperature;BME280_humidity;BME280_pressure;Samples;Min_cycle;Max_cycle;Signal;HPM_P1;HPM_P2
2023/02/14 00:00:41;;;;;;;;;;;;;;;;;;5095560;28;19922;-84
2023/02/14 00:03:07;;;;;;;;;;;;;;;;;;5095382;28;19916;-85
2023/02/14 00:05:32;;;;;;;;;;;;;;;;;;5095416;28;20011;-84
2023/02/14 00:07:57;;;;;;;;;;;;;;;;;;5095406;28;20018;-84
2023/02/14 00:10:23;;;;;;;;;;;;;;;;;;5095110;28;19923;-85
2023/02/14 00:12:48;;;;;;;;;;;;;;;;;;5076977;28;20272;-84
2023/02/14 00:15:23;;;;;;;;;;;;;;;;;;5095254;28;19923;-84
2023/02/14 00:17:53;;;;;;;;;;;;;;;;;;5076917;28;20065;-84
2023/02/14 00:20:19;;;;;;;;;;;;;;;;;;5094861;28;19967;-83
2023/02/14 00:22:44;;;;;;;;;;;;;;;;;;5094976;28;20040;-84
2023/02/14 00:25:10;;;;;;;;;;;;;;;;;;5060171;28;19920;-84
2023/02/14 00:27:35;;;;;;;;;;;;;;;;;;5076685;28;19969;-84
2023/02/14 00:30:02;;;;;;;;;;;;;;;;;;5076667;28;20014;-86
2023/02/14 00:32:30;;;;;;;;;;;;;;;;;;5094876;28;19923;-85
2023/02/14 00:34:55;;;;;;;;;;;;;;;;;;5094874;28;19918;-84
2023/02/14 00:37:21;;;;;;;;;;;;;;;;;;5094649;28;20299;-84
2023/02/14 00:39:47;;;;;;;;;;;;;;;;;;5076591;28;20347;-84
2023/02/14 00:42:12;;;;;;;;;;;;;;;;;;5094540;28;20282;-84
2023/02/14 00:44:38;;;;;;;;;;;;;;;;;;5076494;28;20023;-83
2023/02/14 00:47:03;;;;;;;;;;;;;;;;;;5094505;28;20269;-84
2023/02/14 00:49:29;;;;;;;;;;;;;;;;;;5076268;28;19961;-84
2023/02/14 00:51:54;;;;;;;;;;;;;;;;;;5094262;28;20294;-84
2023/02/14 00:54:20;;;;;;;;;;;;;;;;;;5094437;28;19916;-84
2023/02/14 00:56:45;;;;;;;;;;;;;;;;;;5094456;28;19920;-83
2023/02/14 00:59:10;;;;;;;;;;;;;;;;;;5094226;28;20023;-83
2023/02/14 01:01:36;;;;;;;;;;;;;;;;;;5094143;28;20061;-84
2023/02/14 01:04:01;;;;;;;;;;;;;;;;;;5094082;28;19960;-84
2023/02/14 01:06:27;;;;;;;;;;;;;;;;;;5094229;28;19920;-83
2023/02/14 01:08:52;;;;;;;;;;;;;;;;;;5094252;28;19927;-83
2023/02/14 01:11:19;;;;;;;;;;;;;;;;;;5093976;28;20030;-83
2023/02/14 01:13:46;;;;;;;;;;;;;;;;;;5094081;28;19924;-86
2023/02/14 01:16:13;;;;;;;;;;;;;;;;;;5094023;28;19959;-84
2023/02/14 01:18:39;;;;;;;;;;;;;;;;;;5093894;28;19920;-85
2023/02/14 01:21:13;;;;;;;;;;;;;;;;;;5072302;28;20372;-84
2023/02/14 01:23:39;;;;;;;;;;;;;;;;;;5072774;28;19921;-85
2023/02/14 01:26:05;;;;;;;;;;;;;;;;;;5073709;28;19939;-84
2023/02/14 01:28:31;;;;;;;;;;;;;;;;;;5073676;28;19917;-84
2023/02/14 01:30:56;;;;;;;;;;;;;;;;;;5075788;28;19970;-84
2023/02/14 01:33:22;;;;;;;;;;;;;;;;;;5087569;28;19931;-84
2023/02/14 01:35:47;;;;;;;;;;;;;;;;;;5092565;28;19920;-84
2023/02/14 01:38:12;;;;;;;;;;;;;;;;;;5082027;28;20300;-84
2023/02/14 01:40:42;;;;;;;;;;;;;;;;;;5074311;28;19920;-86
2023/02/14 01:43:12;;;;;;;;;;;;;;;;;;5073879;28;20368;-84
2023/02/14 01:45:37;;;;;;;;;;;;;;;;;;5073572;28;19916;-84
2023/02/14 01:48:03;;;;;;;;;;;;;;;;;;5073520;28;19920;-84
2023/02/14 01:50:33;;;;;;;;;;;;;;;;;;5073381;28;20019;-84
2023/02/14 01:53:01;;;;;;;;;;;;;;;;;;5073389;28;20326;-86
2023/02/14 01:55:29;;;;;;;;;;;;;;;;;;5073396;28;19943;-86
2023/02/14 01:58:14;;;;;;;;;;;;;;;;;;5073393;28;20267;-84
2023/02/14 02:00:58;;;;;;;;;;;;;;;;;;5073247;28;19918;-85
2023/02/14 02:03:27;;;;;;;;;;;;;;;;;;5076147;28;19916;-85
2023/02/14 02:05:58;;;;;;;;;;;;;;;;;;5077390;28;19970;-84
2023/02/14 02:08:24;;;;;;;;;;;;;;;;;;5075954;28;19923;-85
2023/02/14 02:10:49;;;;;;;;;;;;;;;;;;5077248;28;19967;-83
2023/02/14 02:13:16;;;;;;;;;;;;;;;;;;5077180;28;19970;-84
2023/02/14 02:15:48;;;;;;;;;;;;;;;;;;5077180;28;20391;-84
2023/02/14 02:18:18;;;;;;;;;;;;;;;;;;5076130;28;19917;-84
2023/02/14 02:20:47;;;;;;;;;;;;;;;;;;5075792;28;19920;-84
2023/02/14 02:23:32;;;;;;;;;;;;;;;;;;5076983;28;20349;-84
2023/02/14 02:26:04;;;;;;;;;;;;;;;;;;5077155;28;19920;-83
2023/02/14 02:28:35;;;;;;;;;;;;;;;;;;5077055;28;19963;-84
2023/02/14 02:31:21;;;;;;;;;;;;;;;;;;5076970;28;19920;-85
2023/02/14 02:34:00;;;;;;;;;;;;;;;;;;5085889;28;19939;-84
2023/02/14 02:36:46;;;;;;;;;;;;;;;;;;5076832;28;19923;-86
2023/02/14 02:39:31;;;;;;;;;;;;;;;;;;5076662;28;19916;-84
2023/02/14 02:42:15;;;;;;;;;;;;;;;;;;5075456;28;19916;-83
2023/02/14 02:44:49;;;;;;;;;;;;;;;;;;5076816;28;20018;-86
2023/02/14 02:47:18;;;;;;;;;;;;;;;;;;5076782;28;19959;-84
2023/02/14 02:53:02;;;;;;;;;;;;;;;;;;5076839;28;19923;-84
2023/02/14 02:58:41;;;;;;;;;;;;;;;;;;5076440;28;19963;-83
2023/02/14 03:01:16;;;;;;;;;;;;;;;;;;5076419;28;20394;-83
2023/02/14 03:06:29;;;;;;;;;;;;;;;;;;5076617;28;19978;-83
2023/02/14 03:08:54;;;;;;;;;;;;;;;;;;5076256;28;20359;-86
2023/02/14 03:11:20;;;;;;;;;;;;;;;;;;5076336;28;19931;-84
2023/02/14 03:14:04;;;;;;;;;;;;;;;;;;5076083;28;20038;-84
2023/02/14 03:16:34;;;;;;;;;;;;;;;;;;5076116;28;19921;-84
2023/02/14 03:19:08;;;;;;;;;;;;;;;;;;5076905;28;19960;-86
2023/02/14 03:21:37;;;;;;;;;;;;;;;;;;5096241;28;19952;-85
2023/02/14 03:24:21;;;;;;;;;;;;;;;;;;5096017;28;19987;-86
2023/02/14 03:26:48;;;;;;;;;;;;;;;;;;5077897;28;19920;-84
2023/02/14 03:29:32;;;;;;;;;;;;;;;;;;5078115;28;19956;-85
2023/02/14 03:31:58;;;;;;;;;;;;;;;;;;5096023;28;19984;-84
2023/02/14 03:34:29;;;;;;;;;;;;;;;;;;5078262;28;19917;-85
2023/02/14 03:36:58;;;;;;;;;;;;;;;;;;5095965;28;19942;-84
2023/02/14 03:39:31;;;;;;;;;;;;;;;;;;5095947;28;19923;-86
2023/02/14 03:42:07;;;;;;;;;;;;;;;;;;5077695;28;19916;-88
2023/02/14 03:44:33;;;;;;;;;;;;;;;;;;5095698;28;20011;-91
2023/02/14 03:47:05;;;;;;;;;;;;;;;;;;5095724;28;19931;-90
2023/02/14 03:49:33;;;;;;;;;;;;;;;;;;5095793;28;19916;-86
2023/02/14 03:52:00;;;;;;;;;;;;;;;;;;5095488;28;19959;-84
2023/02/14 03:54:26;;;;;;;;;;;;;;;;;;5095373;28;19922;-87
2023/02/14 03:57:10;;;;;;;;;;;;;;;;;;5095455;28;19916;-89
2023/02/14 03:59:36;;;;;;;;;;;;;;;;;;5095384;28;19970;-85
2023/02/14 04:02:09;;;;;;;;;;;;;;;;;;5095346;28;19916;-84
2023/02/14 04:04:37;;;;;;;;;;;;;;;;;;5095329;28;19965;-84
2023/02/14 04:07:11;;;;;;;;;;;;;;;;;;5095159;28;19916;-84
2023/02/14 04:09:36;;;;;;;;;;;;;;;;;;5095049;28;19920;-85
2023/02/14 04:12:02;;;;;;;;;;;;;;;;;;5094880;28;20003;-84
2023/02/14 04:14:29;;;;;;;;;;;;;;;;;;5095052;28;19920;-86
2023/02/14 04:19:38;;;;;;;;;;;;;;;;;;5094949;28;19931;-83
2023/02/14 04:22:03;;;;;;;;;;;;;;;;;;5094942;28;19916;-86
2023/02/14 04:24:29;;;;;;;;;;;;;;;;;;5094478;28;19920;-84
2023/02/14 04:27:08;;;;;;;;;;;;;;;;;;5094541;28;19924;-85
2023/02/14 04:29:37;;;;;;;;;;;;;;;;;;5076662;28;19923;-83
2023/02/14 04:32:03;;;;;;;;;;;;;;;;;;5092544;28;19962;-85
2023/02/14 04:34:29;;;;;;;;;;;;;;;;;;5068272;28;19921;-84
2023/02/14 04:36:54;;;;;;;;;;;;;;;;;;5056451;28;19916;-84
2023/02/14 04:39:19;;;;;;;;;;;;;;;;;;5074283;28;19948;-85
2023/02/14 04:41:45;;;;;;;;;;;;;;;;;;5084627;28;19922;-90
2023/02/14 04:44:10;;;;;;;;;;;;;;;;;;5076127;28;19916;-88
2023/02/14 04:46:35;;;;;;;;;;;;;;;;;;5094103;28;19916;-91
2023/02/14 04:49:01;;;;;;;;;;;;;;;;;;5094420;28;19951;-88
2023/02/14 04:51:27;;;;;;;;;;;;;;;;;;5076298;28;19923;-88
2023/02/14 04:53:52;;;;;;;;;;;;;;;;;;5069380;28;19947;-89
2023/02/14 04:56:17;;;;;;;;;;;;;;;;;;5077006;28;20429;-87
2023/02/14 04:58:43;;;;;;;;;;;;;;;;;;5085482;28;19931;-85
2023/02/14 05:01:08;;;;;;;;;;;;;;;;;;5087669;28;20378;-83
2023/02/14 05:03:33;;;;;;;;;;;;;;;;;;5093838;28;19939;-83
2023/02/14 05:05:59;;;;;;;;;;;;;;;;;;5094629;28;19974;-83
2023/02/14 05:08:24;;;;;;;;;;;;;;;;;;5094596;28;20046;-86
2023/02/14 05:10:50;;;;;;;;;;;;;;;;;;5094278;28;20018;-83
2023/02/14 05:13:16;;;;;;;;;;;;;;;;;;5094854;28;20359;-84
2023/02/14 05:15:43;;;;;;;;;;;;;;;;;;5083689;28;19917;-90
2023/02/14 05:18:08;;;;;;;;;;;;;;;;;;5125527;28;19999;-85
2023/02/14 05:20:34;;;;;;;;;;;;;;;;;;5115181;28;19927;-85
2023/02/14 05:23:02;;;;;;;;;;;;;;;;;;5082070;28;20375;-86
2023/02/14 05:25:28;;;;;;;;;;;;;;;;;;5094454;28;20474;-87
2023/02/14 05:27:53;;;;;;;;;;;;;;;;;;5094231;28;19957;-86
2023/02/14 05:30:21;;;;;;;;;;;;;;;;;;5076006;28;19916;-87
2023/02/14 05:32:46;;;;;;;;;;;;;;;;;;5067634;28;19973;-84
2023/02/14 05:35:11;;;;;;;;;;;;;;;;;;5069121;28;20011;-83
2023/02/14 05:37:37;;;;;;;;;;;;;;;;;;5092059;28;20018;-82
2023/02/14 05:40:03;;;;;;;;;;;;;;;;;;5093559;28;20295;-83
2023/02/14 05:42:28;;;;;;;;;;;;;;;;;;5075466;28;19967;-82
2023/02/14 05:44:53;;;;;;;;;;;;;;;;;;5093760;28;19917;-84
2023/02/14 05:47:19;;;;;;;;;;;;;;;;;;5093441;28;19916;-81
2023/02/14 05:49:44;;;;;;;;;;;;;;;;;;5093611;28;19920;-82
2023/02/14 05:52:10;;;;;;;;;;;;;;;;;;5093366;28;19923;-82
2023/02/14 05:54:35;;;;;;;;;;;;;;;;;;5093482;28;19973;-81
2023/02/14 05:57:01;;;;;;;;;;;;;;;;;;5093462;28;19920;-82
2023/02/14 05:59:26;;;;;;;;;;;;;;;;;;5075162;28;20417;-83
2023/02/14 06:01:51;;;;;;;;;;;;;;;;;;5093525;28;20355;-83
2023/02/14 06:04:17;;;;;;;;;;;;;;;;;;5093306;28;20018;-82
2023/02/14 06:06:42;;;;;;;;;;;;;;;;;;5093305;28;19988;-82
2023/02/14 06:09:07;;;;;;;;;;;;;;;;;;5093304;28;19928;-82
2023/02/14 06:11:33;;;;;;;;;;;;;;;;;;5075249;28;19924;-83
2023/02/14 06:13:58;;;;;;;;;;;;;;;;;;5093251;28;20401;-87
2023/02/14 06:16:24;;;;;;;;;;;;;;;;;;5093335;28;19922;-84
2023/02/14 06:18:49;;;;;;;;;;;;;;;;;;5093198;28;19920;-83
2023/02/14 06:21:14;;;;;;;;;;;;;;;;;;5093180;28;19920;-83
2023/02/14 06:23:40;;;;;;;;;;;;;;;;;;5074656;28;19916;-83
2023/02/14 06:26:05;;;;;;;;;;;;;;;;;;5093149;28;20279;-83
2023/02/14 06:28:31;;;;;;;;;;;;;;;;;;5093136;28;19919;-83
2023/02/14 06:30:56;;;;;;;;;;;;;;;;;;5093096;28;19961;-83
2023/02/14 06:33:21;;;;;;;;;;;;;;;;;;5093135;28;20317;-84
2023/02/14 06:35:47;;;;;;;;;;;;;;;;;;5075042;28;19919;-83
2023/02/14 06:38:12;;;;;;;;;;;;;;;;;;5093024;28;19923;-84
2023/02/14 06:40:38;;;;;;;;;;;;;;;;;;5093144;28;19916;-84
2023/02/14 06:43:03;;;;;;;;;;;;;;;;;;5093005;28;19959;-83
2023/02/14 06:45:29;;;;;;;;;;;;;;;;;;5093041;28;19923;-82
2023/02/14 06:47:54;;;;;;;;;;;;;;;;;;5075218;28;19916;-84
2023/02/14 06:50:19;;;;;;;;;;;;;;;;;;5096763;28;19927;-83
2023/02/14 06:52:45;;;;;;;;;;;;;;;;;;5078573;28;20393;-83
2023/02/14 06:55:12;;;;;;;;;;;;;;;;;;5096792;28;19916;-84
2023/02/14 06:57:39;;;;;;;;;;;;;;;;;;5078436;28;19923;-84
2023/02/14 07:00:04;;;;;;;;;;;;;;;;;;5096845;28;19966;-84
2023/02/14 07:02:30;;;;;;;;;;;;;;;;;;5078257;28;19955;-84
2023/02/14 07:04:55;;;;;;;;;;;;;;;;;;5096506;28;19927;-84
2023/02/14 07:07:20;;;;;;;;;;;;;;;;;;5096518;28;19920;-85
2023/02/14 07:09:46;;;;;;;;;;;;;;;;;;5096630;28;19924;-86
2023/02/14 07:12:11;;;;;;;;;;;;;;;;;;5096474;28;20379;-84
2023/02/14 07:14:37;;;;;;;;;;;;;;;;;;5096310;28;19961;-84
2023/02/14 07:17:02;;;;;;;;;;;;;;;;;;5096253;28;19938;-84
2023/02/14 07:19:28;;;;;;;;;;;;;;;;;;5096089;28;20371;-85
2023/02/14 07:21:53;;;;;;;;;;;;;;;;;;5096231;28;20398;-85
2023/02/14 07:24:18;;;;;;;;;;;;;;;;;;5096094;28;19920;-86
2023/02/14 07:26:44;;;;;;;;;;;;;;;;;;5096067;28;19923;-85
2023/02/14 07:29:09;;;;;;;;;;;;;;;;;;5096051;28;20014;-86
2023/02/14 07:31:35;;;;;;;;;;;;;;;;;;5095957;28;20058;-86
2023/02/14 07:34:00;;;;;;;;;;;;;;;;;;5078039;28;20283;-84
2023/02/14 07:36:26;;;;;;;;;;;;;;;;;;5095813;28;19952;-87
2023/02/14 07:38:51;;;;;;;;;;;;;;;;;;5095864;28;19917;-85
2023/02/14 07:41:16;;;;;;;;;;;;;;;;;;5095755;28;19939;-84
2023/02/14 07:43:42;;;;;;;;;;;;;;;;;;5095628;28;20414;-85
2023/02/14 07:46:07;;;;;;;;;;;;;;;;;;5095599;28;19970;-87
2023/02/14 07:48:33;;;;;;;;;;;;;;;;;;5077745;28;19961;-84
2023/02/14 07:50:58;;;;;;;;;;;;;;;;;;5095640;28;19924;-85
2023/02/14 07:53:24;;;;;;;;;;;;;;;;;;5095838;28;19943;-88
2023/02/14 07:55:50;;;;;;;;;;;;;;;;;;5095522;28;19920;-86
2023/02/14 07:58:16;;;;;;;;;;;;;;;;;;5095563;28;19923;-84
2023/02/14 08:00:41;;;;;;;;;;;;;;;;;;5076362;28;19998;-86
2023/02/14 08:03:07;;;;;;;;;;;;;;;;;;5095254;28;19922;-84
2023/02/14 08:05:32;;;;;;;;;;;;;;;;;;5095320;28;20428;-86
2023/02/14 08:07:58;;;;;;;;;;;;;;;;;;5095339;28;19967;-84
2023/02/14 08:10:23;;;;;;;;;;;;;;;;;;5095249;28;20014;-84
2023/02/14 08:12:57;;;;;;;;;;;;;;;;;;5095193;28;19927;-84
2023/02/14 08:18:07;;;;;;;;;;;;;;;;;;5095400;28;20283;-85
2023/02/14 08:20:33;;;;;;;;;;;;;;;;;;5094732;28;19959;-85
2023/02/14 08:22:58;;;;;;;;;;;;;;;;;;5094879;28;20283;-85
2023/02/14 08:25:23;;;;;;;;;;;;;;;;;;5094960;28;19916;-85
2023/02/14 08:27:49;;;;;;;;;;;;;;;;;;5076727;28;19967;-84
2023/02/14 08:30:14;;;;;;;;;;;;;;;;;;5094944;28;20007;-84
2023/02/14 08:32:40;;;;;;;;;;;;;;;;;;5076601;28;19916;-84
2023/02/14 08:35:05;;;;;;;;;;;;;;;;;;5094753;28;20049;-84
2023/02/14 08:37:31;;;;;;;;;;;;;;;;;;5076778;28;20380;-83
2023/02/14 08:39:56;;;;;;;;;;;;;;;;;;5094639;28;19920;-84
2023/02/14 08:42:22;;;;;;;;;;;;;;;;;;5076890;28;20418;-84
2023/02/14 08:44:47;;;;;;;;;;;;;;;;;;5076948;28;19967;-84
2023/02/14 08:47:12;;;;;;;;;;;;;;;;;;5094846;28;19938;-84
2023/02/14 08:49:38;;;;;;;;;;;;;;;;;;5094627;28;19928;-85
2023/02/14 08:52:03;;;;;;;;;;;;;;;;;;5082107;28;19920;-84
2023/02/14 08:54:29;;;;;;;;;;;;;;;;;;5106863;28;19988;-84
2023/02/14 08:56:55;;;;;;;;;;;;;;;;;;5108076;28;19916;-84
2023/02/14 08:59:20;;;;;;;;;;;;;;;;;;5099127;28;19916;-86
2023/02/14 09:01:45;;;;;;;;;;;;;;;;;;5094628;28;19917;-85
2023/02/14 09:04:11;;;;;;;;;;;;;;;;;;5094885;28;20413;-85
2023/02/14 09:06:38;;;;;;;;;;;;;;;;;;5094372;28;19965;-84
2023/02/14 09:09:03;;;;;;;;;;;;;;;;;;5094181;28;20324;-85
2023/02/14 09:11:29;;;;;;;;;;;;;;;;;;5094071;28;20017;-85
2023/02/14 09:13:54;;;;;;;;;;;;;;;;;;5076218;28;20252;-84
2023/02/14 09:16:20;;;;;;;;;;;;;;;;;;5076203;28;19920;-86
2023/02/14 09:18:46;;;;;;;;;;;;;;;;;;5093988;28;19924;-85
2023/02/14 09:21:13;;;;;;;;;;;;;;;;;;5093785;28;20007;-84
2023/02/14 09:23:39;;;;;;;;;;;;;;;;;;5093811;28;19920;-84
2023/02/14 09:26:06;;;;;;;;;;;;;;;;;;5093494;28;20386;-83
2023/02/14 09:28:32;;;;;;;;;;;;;;;;;;5093837;28;19916;-85
2023/02/14 09:30:58;;;;;;;;;;;;;;;;;;5075731;28;19920;-84
2023/02/14 09:33:26;;;;;;;;;;;;;;;;;;5093669;28;20311;-84
2023/02/14 09:35:52;;;;;;;;;;;;;;;;;;5075898;28;20279;-84
2023/02/14 09:38:18;;;;;;;;;;;;;;;;;;5093255;28;19916;-84
2023/02/14 09:40:44;;;;;;;;;;;;;;;;;;5093707;28;19913;-83
2023/02/14 09:43:23;;;;;;;;;;;;;;;;;;5075229;28;20019;-84
2023/02/14 09:45:51;;;;;;;;;;;;;;;;;;5093512;28;19920;-83
2023/02/14 09:48:32;;;;;;;;;;;;;;;;;;5075346;28;19939;-84
2023/02/14 09:51:01;;;;;;;;;;;;;;;;;;5079648;28;19947;-84
2023/02/14 09:53:42;;;;;;;;;;;;;;;;;;5072905;28;19912;-85
2023/02/14 09:56:16;;;;;;;;;;;;;;;;;;5072193;28;19920;-84
2023/02/14 09:58:42;;;;;;;;;;;;;;;;;;5072562;28;19916;-84
2023/02/14 10:01:25;;;;;;;;;;;;;;;;;;5054970;28;19916;-85
2023/02/14 10:04:09;;;;;;;;;;;;;;;;;;5054829;28;19920;-85
2023/02/14 10:06:39;;;;;;;;;;;;;;;;;;5072982;28;19917;-84
2023/02/14 10:09:23;;;;;;;;;;;;;;;;;;5073041;28;19955;-84
2023/02/14 10:11:49;;;;;;;;;;;;;;;;;;5073125;28;20312;-83
2023/02/14 10:14:19;;;;;;;;;;;;;;;;;;5073071;28;19917;-84
2023/02/14 10:16:48;;;;;;;;;;;;;;;;;;5073010;28;19916;-83
2023/02/14 10:19:26;;;;;;;;;;;;;;;;;;5072936;28;20007;-84
2023/02/14 10:21:54;;;;;;;;;;;;;;;;;;5073443;28;20302;-86
2023/02/14 10:24:24;;;;;;;;;;;;;;;;;;5075787;28;19934;-84
2023/02/14 10:26:51;;;;;;;;;;;;;;;;;;5076972;28;19927;-86
2023/02/14 10:29:17;;;;;;;;;;;;;;;;;;5076999;28;20438;-83
2023/02/14 10:31:43;;;;;;;;;;;;;;;;;;5076808;28;19917;-86
2023/02/14 10:34:08;;;;;;;;;;;;;;;;;;5058873;28;20333;-83
2023/02/14 10:36:37;;;;;;;;;;;;;;;;;;5058837;28;19916;-83
2023/02/14 10:39:10;;;;;;;;;;;;;;;;;;5059052;28;20260;-83
2023/02/14 10:41:42;;;;;;;;;;;;;;;;;;5058946;28;20013;-83
2023/02/14 10:44:17;;;;;;;;;;;;;;;;;;5058673;28;19922;-83
2023/02/14 10:47:04;;;;;;;;;;;;;;;;;;5058661;28;20007;-83
2023/02/14 10:49:32;;;;;;;;;;;;;;;;;;5076669;28;19913;-82
2023/02/14 10:52:07;;;;;;;;;;;;;;;;;;5058553;28;19923;-83
2023/02/14 10:54:40;;;;;;;;;;;;;;;;;;5058578;28;19912;-83
2023/02/14 10:57:10;;;;;;;;;;;;;;;;;;5076441;28;19916;-83
2023/02/14 10:59:56;;;;;;;;;;;;;;;;;;5076464;28;19916;-83
2023/02/14 11:02:23;;;;;;;;;;;;;;;;;;5075781;28;19912;-83
2023/02/14 11:04:49;;;;;;;;;;;;;;;;;;5076230;28;20302;-85
2023/02/14 11:07:15;;;;;;;;;;;;;;;;;;5076175;28;19920;-83
2023/02/14 11:09:41;;;;;;;;;;;;;;;;;;5058217;28;19940;-83
2023/02/14 11:12:07;;;;;;;;;;;;;;;;;;5076253;28;20334;-86
2023/02/14 11:14:35;;;;;;;;;;;;;;;;;;5070203;28;19924;-84
2023/02/14 11:17:20;;;;;;;;;;;;;;;;;;5074113;28;20423;-84
2023/02/14 11:20:08;;;;;;;;;;;;;;;;;;5075467;28;20031;-83
2023/02/14 11:22:34;;;;;;;;;;;;;;;;;;5065041;28;19967;-85
2023/02/14 11:25:16;;;;;;;;;;;;;;;;;;5080940;28;19927;-84
2023/02/14 11:27:48;;;;;;;;;;;;;;;;;;5096114;28;19916;-84
2023/02/14 11:30:32;;;;;;;;;;;;;;;;;;5092205;28;19927;-83
2023/02/14 11:32:58;;;;;;;;;;;;;;;;;;5080879;28;19967;-84
2023/02/14 11:35:34;;;;;;;;;;;;;;;;;;5074446;28;19924;-84
2023/02/14 11:38:00;;;;;;;;;;;;;;;;;;5084256;28;20461;-85
2023/02/14 11:40:30;;;;;;;;;;;;;;;;;;5069557;28;19963;-85
2023/02/14 11:43:17;;;;;;;;;;;;;;;;;;5095070;28;19923;-82
2023/02/14 11:45:44;;;;;;;;;;;;;;;;;;5076123;28;19922;-83
2023/02/14 11:48:17;;;;;;;;;;;;;;;;;;5095064;28;19916;-83
2023/02/14 11:50:43;;;;;;;;;;;;;;;;;;5094732;28;19946;-84
2023/02/14 11:53:18;;;;;;;;;;;;;;;;;;5095250;28;20436;-83
2023/02/14 11:55:49;;;;;;;;;;;;;;;;;;5095544;28;19916;-82
2023/02/14 11:58:27;;;;;;;;;;;;;;;;;;5095317;28;19919;-83
2023/02/14 12:00:53;;;;;;;;;;;;;;;;;;5095333;28;20283;-82
2023/02/14 12:03:18;;;;;;;;;;;;;;;;;;5095197;28;19920;-86
2023/02/14 12:05:46;;;;;;;;;;;;;;;;;;5077170;28;19916;-83
2023/02/14 12:08:12;;;;;;;;;;;;;;;;;;5077139;28;19923;-82
2023/02/14 12:10:38;;;;;;;;;;;;;;;;;;5095284;28;19916;-83
2023/02/14 12:13:06;;;;;;;;;;;;;;;;;;5077124;28;19916;-86
2023/02/14 12:15:36;;;;;;;;;;;;;;;;;;5095173;28;19912;-84
2023/02/14 12:18:20;;;;;;;;;;;;;;;;;;5095279;28;19920;-82
2023/02/14 12:20:45;;;;;;;;;;;;;;;;;;5095143;28;19927;-81
2023/02/14 12:23:35;;;;;;;;;;;;;;;;;;5095067;28;20283;-82
2023/02/14 12:26:09;;;;;;;;;;;;;;;;;;5099316;28;19920;-82
2023/02/14 12:28:38;;;;;;;;;;;;;;;;;;5101992;28;19916;-82
2023/02/14 12:31:11;;;;;;;;;;;;;;;;;;5087609;28;19920;-82
2023/02/14 12:33:38;;;;;;;;;;;;;;;;;;5103504;28;19938;-85
2023/02/14 12:36:39;;;;;;;;;;;;;;;;;;5077457;28;19927;-82
2023/02/14 12:39:04;;;;;;;;;;;;;;;;;;5032795;28;19917;-85
2023/02/14 12:41:36;;;;;;;;;;;;;;;;;;5081592;28;19916;-86
2023/02/14 12:44:14;;;;;;;;;;;;;;;;;;5076454;28;19920;-83
2023/02/14 12:46:54;;;;;;;;;;;;;;;;;;5094560;28;19924;-84
2023/02/14 12:49:38;;;;;;;;;;;;;;;;;;5076707;28;19919;-84
2023/02/14 12:52:22;;;;;;;;;;;;;;;;;;5094681;28;19920;-84
2023/02/14 12:55:06;;;;;;;;;;;;;;;;;;5094475;28;19916;-86
2023/02/14 12:57:31;;;;;;;;;;;;;;;;;;5076231;28;19912;-83
2023/02/14 13:00:06;;;;;;;;;;;;;;;;;;5094326;28;19916;-83
2023/02/14 13:02:50;;;;;;;;;;;;;;;;;;5094316;28;19912;-84
2023/02/14 13:05:21;;;;;;;;;;;;;;;;;;5076201;28;20375;-87
2023/02/14 13:07:47;;;;;;;;;;;;;;;;;;5094432;28;20421;-83
2023/02/14 13:10:12;;;;;;;;;;;;;;;;;;5094237;28;19916;-83
2023/02/14 13:12:47;;;;;;;;;;;;;;;;;;5094259;28;19927;-82
2023/02/14 13:15:15;;;;;;;;;;;;;;;;;;5094182;28;19917;-83
2023/02/14 13:17:40;;;;;;;;;;;;;;;;;;5076012;28;19916;-83
2023/02/14 13:20:31;;;;;;;;;;;;;;;;;;5075678;28;20325;-82
2023/02/14 13:22:59;;;;;;;;;;;;;;;;;;5076870;28;19944;-81
2023/02/14 13:25:32;;;;;;;;;;;;;;;;;;5076277;28;20279;-81
2023/02/14 13:28:03;;;;;;;;;;;;;;;;;;5092934;28;20404;-82
2023/02/14 13:30:30;;;;;;;;;;;;;;;;;;5075581;28;20349;-81
2023/02/14 13:32:57;;;;;;;;;;;;;;;;;;5075817;28;19916;-82
2023/02/14 13:35:25;;;;;;;;;;;;;;;;;;5093667;28;19989;-81
2023/02/14 13:37:52;;;;;;;;;;;;;;;;;;5093701;28;19916;-81
2023/02/14 13:40:20;;;;;;;;;;;;;;;;;;5093589;28;19965;-82
2023/02/14 13:42:46;;;;;;;;;;;;;;;;;;5093458;28;19920;-81
2023/02/14 13:45:38;;;;;;;;;;;;;;;;;;5096729;28;19916;-84
2023/02/14 13:48:15;;;;;;;;;;;;;;;;;;5089548;28;19920;-82
2023/02/14 13:50:49;;;;;;;;;;;;;;;;;;5072350;28;20303;-80
2023/02/14 13:53:28;;;;;;;;;;;;;;;;;;5078117;28;19927;-82
2023/02/14 13:55:54;;;;;;;;;;;;;;;;;;5081594;28;19920;-80
2023/02/14 13:58:21;;;;;;;;;;;;;;;;;;5079382;28;19921;-82
2023/02/14 14:00:47;;;;;;;;;;;;;;;;;;5058812;28;19931;-83
2023/02/14 14:03:33;;;;;;;;;;;;;;;;;;5062911;28;19931;-81
2023/02/14 14:05:58;;;;;;;;;;;;;;;;;;5049123;28;19963;-84
2023/02/14 14:08:25;;;;;;;;;;;;;;;;;;5085583;28;19963;-84
2023/02/14 14:10:52;;;;;;;;;;;;;;;;;;5080423;28;19974;-80
2023/02/14 14:13:36;;;;;;;;;;;;;;;;;;5081278;28;19999;-88
2023/02/14 14:16:20;;;;;;;;;;;;;;;;;;5082963;28;19920;-83
2023/02/14 14:18:46;;;;;;;;;;;;;;;;;;5083078;28;20015;-82
2023/02/14 14:21:33;;;;;;;;;;;;;;;;;;5085489;28;20011;-82
2023/02/14 14:24:19;;;;;;;;;;;;;;;;;;5081368;28;20011;-82
2023/02/14 14:26:46;;;;;;;;;;;;;;;;;;5074057;28;19916;-81
2023/02/14 14:29:20;;;;;;;;;;;;;;;;;;5084382;28;19924;-82
2023/02/14 14:31:46;;;;;;;;;;;;;;;;;;5090137;28;19920;-86
2023/02/14 14:34:16;;;;;;;;;;;;;;;;;;5068747;28;19927;-82
2023/02/14 14:36:42;;;;;;;;;;;;;;;;;;5074441;28;19973;-85
2023/02/14 14:39:08;;;;;;;;;;;;;;;;;;5081466;28;19926;-82
2023/02/14 14:41:34;;;;;;;;;;;;;;;;;;5083564;28;19967;-81
2023/02/14 14:43:59;;;;;;;;;;;;;;;;;;5061524;28;19955;-82
2023/02/14 14:46:25;;;;;;;;;;;;;;;;;;5062027;28;19920;-82
2023/02/14 14:48:53;;;;;;;;;;;;;;;;;;5088623;28;19951;-87
2023/02/14 14:51:29;;;;;;;;;;;;;;;;;;5066215;28;20287;-82
2023/02/14 14:53:56;;;;;;;;;;;;;;;;;;5083952;28;19917;-81
2023/02/14 14:56:23;;;;;;;;;;;;;;;;;;5084411;28;19924;-84
2023/02/14 14:58:49;;;;;;;;;;;;;;;;;;5063116;28;19964;-83
2023/02/14 15:01:29;;;;;;;;;;;;;;;;;;5090286;28;20014;-81
2023/02/14 15:04:06;;;;;;;;;;;;;;;;;;5073484;28;19927;-84
2023/02/14 15:06:32;;;;;;;;;;;;;;;;;;5067199;28;19924;-82
2023/02/14 15:08:57;;;;;;;;;;;;;;;;;;5084164;28;20340;-81
2023/02/14 15:14:09;;;;;;;;;;;;;;;;;;5087367;28;19927;-81
2023/02/14 15:16:45;;;;;;;;;;;;;;;;;;5068102;28;19965;-82
2023/02/14 15:19:17;;;;;;;;;;;;;;;;;;5084305;28;19976;-85
2023/02/14 15:21:44;;;;;;;;;;;;;;;;;;5084378;28;19920;-86
2023/02/14 15:24:11;;;;;;;;;;;;;;;;;;5063721;28;20011;-82
2023/02/14 15:26:37;;;;;;;;;;;;;;;;;;5092064;28;19980;-82
2023/02/14 15:29:03;;;;;;;;;;;;;;;;;;5077018;28;19999;-81
2023/02/14 15:31:30;;;;;;;;;;;;;;;;;;5063332;28;20001;-82
2023/02/14 15:33:58;;;;;;;;;;;;;;;;;;5080801;28;19924;-83
2023/02/14 15:36:24;;;;;;;;;;;;;;;;;;5084666;28;19928;-83
2023/02/14 15:38:51;;;;;;;;;;;;;;;;;;5091328;28;20007;-82
2023/02/14 15:41:18;;;;;;;;;;;;;;;;;;5057842;28;19917;-84
2023/02/14 15:43:48;;;;;;;;;;;;;;;;;;5070309;28;20049;-81
2023/02/14 15:46:16;;;;;;;;;;;;;;;;;;5065578;28;19924;-80
2023/02/14 15:48:43;;;;;;;;;;;;;;;;;;5074114;28;20010;-81
2023/02/14 15:51:14;;;;;;;;;;;;;;;;;;5075418;28;19920;-81
2023/02/14 15:53:45;;;;;;;;;;;;;;;;;;5075242;28;19923;-81
2023/02/14 15:56:12;;;;;;;;;;;;;;;;;;5057314;28;19916;-80
2023/02/14 15:58:39;;;;;;;;;;;;;;;;;;5075248;28;19921;-80
2023/02/14 16:01:05;;;;;;;;;;;;;;;;;;5075813;28;20380;-81
2023/02/14 16:03:32;;;;;;;;;;;;;;;;;;5093736;28;20358;-89
2023/02/14 16:05:58;;;;;;;;;;;;;;;;;;5096189;28;19927;-88
2023/02/14 16:08:34;;;;;;;;;;;;;;;;;;5095065;28;20286;-88
2023/02/14 16:11:13;;;;;;;;;;;;;;;;;;5093467;28;19924;-89
2023/02/14 16:13:40;;;;;;;;;;;;;;;;;;5096179;28;19923;-92
2023/02/14 16:16:10;;;;;;;;;;;;;;;;;;5096187;28;20291;-90
2023/02/14 16:18:39;;;;;;;;;;;;;;;;;;5090729;28;19917;-88
2023/02/14 16:21:17;;;;;;;;;;;;;;;;;;5077610;28;19927;-93
2023/02/14 16:23:43;;;;;;;;;;;;;;;;;;5061693;28;19977;-91
2023/02/14 16:26:10;;;;;;;;;;;;;;;;;;5064117;28;19954;-86
2023/02/14 16:28:38;;;;;;;;;;;;;;;;;;5083318;28;19917;-88
2023/02/14 16:31:08;;;;;;;;;;;;;;;;;;5100517;28;19924;-82
2023/02/14 16:33:35;;;;;;;;;;;;;;;;;;5098665;28;19907;-86
2023/02/14 16:36:19;;;;;;;;;;;;;;;;;;5111316;28;19931;-82
2023/02/14 16:38:45;;;;;;;;;;;;;;;;;;5091545;28;19924;-87
2023/02/14 16:41:18;;;;;;;;;;;;;;;;;;5085589;28;19924;-92
2023/02/14 16:43:44;;;;;;;;;;;;;;;;;;5090142;28;19916;-91
2023/02/14 16:46:13;;;;;;;;;;;;;;;;;;5081336;28;20393;-91
2023/02/14 16:48:39;;;;;;;;;;;;;;;;;;5087617;28;19945;-90
2023/02/14 16:51:05;;;;;;;;;;;;;;;;;;5078081;28;19924;-86
2023/02/14 16:53:30;;;;;;;;;;;;;;;;;;5068825;28;20408;-88
2023/02/14 16:55:56;;;;;;;;;;;;;;;;;;5088225;28;21793;-87
2023/02/14 16:58:24;;;;;;;;;;;;;;;;;;5079832;28;20394;-86
2023/02/14 17:00:50;;;;;;;;;;;;;;;;;;5080492;28;19916;-91
2023/02/14 17:03:15;;;;;;;;;;;;;;;;;;5080040;28;19917;-89
2023/02/14 17:05:41;;;;;;;;;;;;;;;;;;5068378;28;19920;-92
2023/02/14 17:08:08;;;;;;;;;;;;;;;;;;5083158;28;19916;-83
2023/02/14 17:10:34;;;;;;;;;;;;;;;;;;5061814;28;20364;-87
2023/02/14 17:13:00;;;;;;;;;;;;;;;;;;5099185;28;19920;-86
2023/02/14 17:15:27;;;;;;;;;;;;;;;;;;5074193;28;19939;-84